Terminal Aerodrome Forecast
Issued by NWS

Home | Current Version | Previous Version | Text Only | Print | Product List | Glossary On
Versions: 1 2 3 4 5 6 7 8 9 10 11 12 13 14 15 16 17 18 19 20 21 22 23 24 25 26 27 28 29 30 31 32 33 34 35 36 37 38 39 40
641
FTUS46 KLOX 260306 AAB
TAFLAX
TAF AMD
KLAX 260306Z 2603/2706 25009KT P6SM SCT025 BKN040
     FM260500 25007KT P6SM -DZ BKN025 OVC040
     FM261500 23006KT P6SM SCT025 BKN040
     FM262000 25010KT P6SM SCT040=

USA.gov is the U.S. government's official web portal to all federal, state and local government web resources and services.